logo dgac
Lunes 20 de Mayo del 2019
Buscar por aerodromo o helipuerto
Ingrese nombre de aeródromo, localidad o designador OACI:
METAR del 20-05-2019 a las 13:00 UTC
METAR SCQP 201300Z 14004KT 120V180 CAVOK 06/05 Q1023
Viento: dirección 140 grados, velocidad 4 nudos
Viento con dirección variable entre 120 y 180 grados
Visibilidad: 10 km o más,
    sin nubes bajo los 5.000 pies o bajo del MSA (Mínimo de Seguridad del Aeródromo),
    sin cumulonimbus, y sin fenómenos de tiempo significativo en el aeródromo o alrededores
Temperatura: 6 °C
Rocío: 5 °C
Humedad_relativa: 93%
Presión: 1023 hPa
METAR del 20-05-2019 a las 13:00 UTC
METAR SCQP 201300Z 14004KT 120V180 CAVOK 06/05 Q1023
Viento: dirección 140 grados, velocidad 4 nudos
Viento con dirección variable entre 120 y 180 grados
Visibilidad: 10 km o más,
    sin nubes bajo los 5.000 pies o bajo del MSA (Mínimo de Seguridad del Aeródromo),
    sin cumulonimbus, y sin fenómenos de tiempo significativo en el aeródromo o alrededores
Temperatura: 6 °C
Rocío: 5 °C
Humedad_relativa: 93%
Presión: 1023 hPa
METAR del 20-05-2019 a las 12:00 UTC
METAR SCQP 201200Z 16005KT 130V200 CAVOK 05/04 Q1023
Viento: dirección 160 grados, velocidad 5 nudos
Viento con dirección variable entre 130 y 200 grados
Visibilidad: 10 km o más,
    sin nubes bajo los 5.000 pies o bajo del MSA (Mínimo de Seguridad del Aeródromo),
    sin cumulonimbus, y sin fenómenos de tiempo significativo en el aeródromo o alrededores
Temperatura: 5 °C
Rocío: 4 °C
Humedad_relativa: 93%
Presión: 1023 hPa
METAR del 20-05-2019 a las 12:00 UTC
METAR SCQP 201200Z 16005KT 130V200 CAVOK 05/04 Q1023
Viento: dirección 160 grados, velocidad 5 nudos
Viento con dirección variable entre 130 y 200 grados
Visibilidad: 10 km o más,
    sin nubes bajo los 5.000 pies o bajo del MSA (Mínimo de Seguridad del Aeródromo),
    sin cumulonimbus, y sin fenómenos de tiempo significativo en el aeródromo o alrededores
Temperatura: 5 °C
Rocío: 4 °C
Humedad_relativa: 93%
Presión: 1023 hPa
METAR del 20-05-2019 a las 11:00 UTC
METAR SCQP 201100Z 21003KT CAVOK 04/04 Q1022
Viento: dirección 210 grados, velocidad 3 nudos
Visibilidad: 10 km o más,
    sin nubes bajo los 5.000 pies o bajo del MSA (Mínimo de Seguridad del Aeródromo),
    sin cumulonimbus, y sin fenómenos de tiempo significativo en el aeródromo o alrededores
Temperatura: 4 °C
Rocío: 4 °C
Humedad_relativa: 100%
Presión: 1022 hPa
METAR del 20-05-2019 a las 10:00 UTC
METAR SCQP 201000Z 18005KT CAVOK 04/04 Q1022
Viento: dirección 180 grados, velocidad 5 nudos
Visibilidad: 10 km o más,
    sin nubes bajo los 5.000 pies o bajo del MSA (Mínimo de Seguridad del Aeródromo),
    sin cumulonimbus, y sin fenómenos de tiempo significativo en el aeródromo o alrededores
Temperatura: 4 °C
Rocío: 4 °C
Humedad_relativa: 100%
Presión: 1022 hPa
METAR del 20-05-2019 a las 09:00 UTC
METAR SCQP 200900Z 19002KT CAVOK 05/05 Q1022
Viento: dirección 190 grados, velocidad 2 nudos
Visibilidad: 10 km o más,
    sin nubes bajo los 5.000 pies o bajo del MSA (Mínimo de Seguridad del Aeródromo),
    sin cumulonimbus, y sin fenómenos de tiempo significativo en el aeródromo o alrededores
Temperatura: 5 °C
Rocío: 5 °C
Humedad_relativa: 100%
Presión: 1022 hPa
METAR del 20-05-2019 a las 07:00 UTC
METAR SCQP 200700Z 20004KT CAVOK 07/07 Q1022
Viento: dirección 200 grados, velocidad 4 nudos
Visibilidad: 10 km o más,
    sin nubes bajo los 5.000 pies o bajo del MSA (Mínimo de Seguridad del Aeródromo),
    sin cumulonimbus, y sin fenómenos de tiempo significativo en el aeródromo o alrededores
Temperatura: 7 °C
Rocío: 7 °C
Humedad_relativa: 100%
Presión: 1022 hPa
METAR del 20-05-2019 a las 06:00 UTC
METAR SCQP 200600Z 33002KT CAVOK 06/06 Q1021
Viento: dirección 330 grados, velocidad 2 nudos
Visibilidad: 10 km o más,
    sin nubes bajo los 5.000 pies o bajo del MSA (Mínimo de Seguridad del Aeródromo),
    sin cumulonimbus, y sin fenómenos de tiempo significativo en el aeródromo o alrededores
Temperatura: 6 °C
Rocío: 6 °C
Humedad_relativa: 100%
Presión: 1021 hPa
METAR del 20-05-2019 a las 05:00 UTC
METAR SCQP 200500Z VRB02KT CAVOK 06/06 Q1021
Viento: dirección variable, velocidad 2 nudos
Visibilidad: 10 km o más,
    sin nubes bajo los 5.000 pies o bajo del MSA (Mínimo de Seguridad del Aeródromo),
    sin cumulonimbus, y sin fenómenos de tiempo significativo en el aeródromo o alrededores
Temperatura: 6 °C
Rocío: 6 °C
Humedad_relativa: 100%
Presión: 1021 hPa